sensor_id;sensor_type;location;lat;lon;timestamp;P1;durP1;ratioP1;P2;durP2;ratioP2
38909;SDS011;24676;51.360;12.354;2023-08-06T00:00:20;3.20;;;2.42;;
38909;SDS011;24676;51.360;12.354;2023-08-06T00:03:05;6.03;;;1.88;;
38909;SDS011;24676;51.360;12.354;2023-08-06T00:05:49;3.80;;;1.80;;
38909;SDS011;24676;51.360;12.354;2023-08-06T00:08:33;2.47;;;1.88;;
38909;SDS011;24676;51.360;12.354;2023-08-06T00:11:17;2.30;;;1.30;;
38909;SDS011;24676;51.360;12.354;2023-08-06T00:14:02;2.70;;;2.10;;
38909;SDS011;24676;51.360;12.354;2023-08-06T00:16:46;3.15;;;1.73;;
38909;SDS011;24676;51.360;12.354;2023-08-06T00:19:31;1.92;;;1.60;;
38909;SDS011;24676;51.360;12.354;2023-08-06T00:22:15;3.75;;;1.88;;
38909;SDS011;24676;51.360;12.354;2023-08-06T00:25:00;3.63;;;2.40;;
38909;SDS011;24676;51.360;12.354;2023-08-06T00:27:44;5.47;;;2.15;;
38909;SDS011;24676;51.360;12.354;2023-08-06T00:30:28;3.38;;;2.03;;
38909;SDS011;24676;51.360;12.354;2023-08-06T00:33:12;2.40;;;1.77;;
38909;SDS011;24676;51.360;12.354;2023-08-06T00:35:56;2.97;;;2.47;;
38909;SDS011;24676;51.360;12.354;2023-08-06T00:38:41;3.05;;;1.80;;
38909;SDS011;24676;51.360;12.354;2023-08-06T00:41:25;3.95;;;1.50;;
38909;SDS011;24676;51.360;12.354;2023-08-06T00:44:09;3.35;;;1.73;;
38909;SDS011;24676;51.360;12.354;2023-08-06T00:46:53;3.38;;;2.22;;
38909;SDS011;24676;51.360;12.354;2023-08-06T00:49:39;4.30;;;2.50;;
38909;SDS011;24676;51.360;12.354;2023-08-06T00:52:24;3.08;;;1.92;;
38909;SDS011;24676;51.360;12.354;2023-08-06T00:55:08;3.03;;;2.42;;
38909;SDS011;24676;51.360;12.354;2023-08-06T00:57:53;4.63;;;2.47;;
38909;SDS011;24676;51.360;12.354;2023-08-06T01:00:39;4.57;;;1.88;;
38909;SDS011;24676;51.360;12.354;2023-08-06T01:03:23;2.33;;;2.13;;
38909;SDS011;24676;51.360;12.354;2023-08-06T01:06:07;3.75;;;2.25;;
38909;SDS011;24676;51.360;12.354;2023-08-06T01:08:56;2.92;;;2.63;;
38909;SDS011;24676;51.360;12.354;2023-08-06T01:15:00;2.33;;;1.88;;
38909;SDS011;24676;51.360;12.354;2023-08-06T01:17:50;2.53;;;2.10;;
38909;SDS011;24676;51.360;12.354;2023-08-06T01:20:35;5.57;;;2.70;;
38909;SDS011;24676;51.360;12.354;2023-08-06T01:23:20;1.95;;;1.80;;
38909;SDS011;24676;51.360;12.354;2023-08-06T01:29:06;3.10;;;2.08;;
38909;SDS011;24676;51.360;12.354;2023-08-06T01:32:01;1.70;;;1.58;;
38909;SDS011;24676;51.360;12.354;2023-08-06T01:34:46;2.78;;;2.42;;
38909;SDS011;24676;51.360;12.354;2023-08-06T01:37:32;2.00;;;1.77;;
38909;SDS011;24676;51.360;12.354;2023-08-06T01:40:16;3.05;;;1.83;;
38909;SDS011;24676;51.360;12.354;2023-08-06T01:43:00;3.38;;;1.67;;
38909;SDS011;24676;51.360;12.354;2023-08-06T01:45:45;2.95;;;2.30;;
38909;SDS011;24676;51.360;12.354;2023-08-06T01:48:29;4.65;;;2.63;;
38909;SDS011;24676;51.360;12.354;2023-08-06T01:51:13;5.13;;;2.88;;
38909;SDS011;24676;51.360;12.354;2023-08-06T01:53:57;4.00;;;2.83;;
38909;SDS011;24676;51.360;12.354;2023-08-06T01:56:41;2.42;;;2.15;;
38909;SDS011;24676;51.360;12.354;2023-08-06T01:59:26;2.90;;;2.42;;
38909;SDS011;24676;51.360;12.354;2023-08-06T02:02:10;2.30;;;2.10;;
38909;SDS011;24676;51.360;12.354;2023-08-06T02:04:54;2.58;;;2.30;;
38909;SDS011;24676;51.360;12.354;2023-08-06T02:07:38;4.45;;;2.78;;
38909;SDS011;24676;51.360;12.354;2023-08-06T02:10:22;3.60;;;2.72;;
38909;SDS011;24676;51.360;12.354;2023-08-06T02:13:07;2.60;;;2.40;;
38909;SDS011;24676;51.360;12.354;2023-08-06T02:15:51;5.85;;;2.30;;
38909;SDS011;24676;51.360;12.354;2023-08-06T02:18:35;2.38;;;2.17;;
38909;SDS011;24676;51.360;12.354;2023-08-06T02:21:19;3.28;;;2.92;;
38909;SDS011;24676;51.360;12.354;2023-08-06T02:24:04;3.25;;;2.42;;
38909;SDS011;24676;51.360;12.354;2023-08-06T02:26:48;2.90;;;2.63;;
38909;SDS011;24676;51.360;12.354;2023-08-06T02:29:34;3.80;;;2.92;;
38909;SDS011;24676;51.360;12.354;2023-08-06T02:32:18;3.75;;;2.58;;
38909;SDS011;24676;51.360;12.354;2023-08-06T02:35:03;3.05;;;2.33;;
38909;SDS011;24676;51.360;12.354;2023-08-06T02:37:47;5.00;;;3.38;;
38909;SDS011;24676;51.360;12.354;2023-08-06T02:40:31;3.45;;;2.97;;
38909;SDS011;24676;51.360;12.354;2023-08-06T02:43:15;5.65;;;2.55;;
38909;SDS011;24676;51.360;12.354;2023-08-06T02:46:00;6.30;;;2.92;;
38909;SDS011;24676;51.360;12.354;2023-08-06T02:48:44;2.13;;;1.92;;
38909;SDS011;24676;51.360;12.354;2023-08-06T02:51:28;5.72;;;3.20;;
38909;SDS011;24676;51.360;12.354;2023-08-06T02:54:12;3.92;;;3.63;;
38909;SDS011;24676;51.360;12.354;2023-08-06T02:56:57;3.08;;;2.35;;
38909;SDS011;24676;51.360;12.354;2023-08-06T02:59:41;5.50;;;2.90;;
38909;SDS011;24676;51.360;12.354;2023-08-06T03:02:25;3.75;;;2.70;;
38909;SDS011;24676;51.360;12.354;2023-08-06T03:05:09;5.43;;;2.85;;
38909;SDS011;24676;51.360;12.354;2023-08-06T03:07:53;4.68;;;2.45;;
38909;SDS011;24676;51.360;12.354;2023-08-06T03:10:37;2.92;;;2.38;;
38909;SDS011;24676;51.360;12.354;2023-08-06T03:13:22;3.33;;;2.75;;
38909;SDS011;24676;51.360;12.354;2023-08-06T03:16:06;2.80;;;2.40;;
38909;SDS011;24676;51.360;12.354;2023-08-06T03:18:50;3.33;;;2.35;;
38909;SDS011;24676;51.360;12.354;2023-08-06T03:21:34;3.58;;;2.35;;
38909;SDS011;24676;51.360;12.354;2023-08-06T03:24:18;2.45;;;2.25;;
38909;SDS011;24676;51.360;12.354;2023-08-06T03:27:02;5.00;;;2.72;;
38909;SDS011;24676;51.360;12.354;2023-08-06T03:29:48;3.42;;;2.65;;
38909;SDS011;24676;51.360;12.354;2023-08-06T03:32:33;3.97;;;2.95;;
38909;SDS011;24676;51.360;12.354;2023-08-06T03:35:17;6.00;;;2.33;;
38909;SDS011;24676;51.360;12.354;2023-08-06T03:38:01;8.00;;;2.20;;
38909;SDS011;24676;51.360;12.354;2023-08-06T03:40:46;3.33;;;2.90;;
38909;SDS011;24676;51.360;12.354;2023-08-06T03:43:30;4.63;;;3.25;;
38909;SDS011;24676;51.360;12.354;2023-08-06T03:46:15;4.45;;;3.67;;
38909;SDS011;24676;51.360;12.354;2023-08-06T03:49:02;3.65;;;3.30;;
38909;SDS011;24676;51.360;12.354;2023-08-06T03:51:46;4.03;;;2.60;;
38909;SDS011;24676;51.360;12.354;2023-08-06T03:54:30;4.30;;;2.85;;
38909;SDS011;24676;51.360;12.354;2023-08-06T03:57:14;4.85;;;2.80;;
38909;SDS011;24676;51.360;12.354;2023-08-06T03:59:58;6.80;;;3.05;;
38909;SDS011;24676;51.360;12.354;2023-08-06T04:02:42;6.15;;;3.40;;
38909;SDS011;24676;51.360;12.354;2023-08-06T04:05:26;4.78;;;2.45;;
38909;SDS011;24676;51.360;12.354;2023-08-06T04:08:10;4.03;;;2.67;;
38909;SDS011;24676;51.360;12.354;2023-08-06T04:10:55;2.72;;;2.50;;
38909;SDS011;24676;51.360;12.354;2023-08-06T04:13:42;5.05;;;2.75;;
38909;SDS011;24676;51.360;12.354;2023-08-06T04:16:27;3.83;;;2.78;;
38909;SDS011;24676;51.360;12.354;2023-08-06T04:19:12;8.15;;;3.30;;
38909;SDS011;24676;51.360;12.354;2023-08-06T04:21:55;2.85;;;2.55;;
38909;SDS011;24676;51.360;12.354;2023-08-06T04:24:40;2.85;;;2.53;;
38909;SDS011;24676;51.360;12.354;2023-08-06T04:27:25;3.47;;;3.17;;
38909;SDS011;24676;51.360;12.354;2023-08-06T04:30:09;2.58;;;2.38;;
38909;SDS011;24676;51.360;12.354;2023-08-06T04:32:58;6.15;;;2.35;;
38909;SDS011;24676;51.360;12.354;2023-08-06T04:35:42;4.85;;;2.38;;
38909;SDS011;24676;51.360;12.354;2023-08-06T04:38:27;4.55;;;2.30;;
38909;SDS011;24676;51.360;12.354;2023-08-06T04:41:11;6.25;;;3.28;;
38909;SDS011;24676;51.360;12.354;2023-08-06T04:43:56;4.57;;;3.38;;
38909;SDS011;24676;51.360;12.354;2023-08-06T04:46:40;3.92;;;2.72;;
38909;SDS011;24676;51.360;12.354;2023-08-06T04:49:25;7.63;;;2.72;;
38909;SDS011;24676;51.360;12.354;2023-08-06T04:52:09;4.40;;;2.45;;
38909;SDS011;24676;51.360;12.354;2023-08-06T04:54:53;3.60;;;2.47;;
38909;SDS011;24676;51.360;12.354;2023-08-06T04:57:38;2.13;;;2.00;;
38909;SDS011;24676;51.360;12.354;2023-08-06T05:00:22;3.30;;;3.00;;
38909;SDS011;24676;51.360;12.354;2023-08-06T05:03:06;2.45;;;1.70;;
38909;SDS011;24676;51.360;12.354;2023-08-06T05:05:50;1.60;;;1.42;;
38909;SDS011;24676;51.360;12.354;2023-08-06T05:08:35;1.70;;;1.52;;
38909;SDS011;24676;51.360;12.354;2023-08-06T05:11:19;2.45;;;1.63;;
38909;SDS011;24676;51.360;12.354;2023-08-06T05:14:03;1.38;;;1.27;;
38909;SDS011;24676;51.360;12.354;2023-08-06T05:16:48;2.10;;;1.45;;
38909;SDS011;24676;51.360;12.354;2023-08-06T05:19:32;1.40;;;1.30;;
38909;SDS011;24676;51.360;12.354;2023-08-06T05:22:16;1.42;;;1.33;;
38909;SDS011;24676;51.360;12.354;2023-08-06T05:25:00;1.35;;;1.05;;
38909;SDS011;24676;51.360;12.354;2023-08-06T05:27:45;0.88;;;0.82;;
38909;SDS011;24676;51.360;12.354;2023-08-06T05:30:29;2.53;;;1.27;;
38909;SDS011;24676;51.360;12.354;2023-08-06T05:33:13;0.85;;;0.85;;
38909;SDS011;24676;51.360;12.354;2023-08-06T05:35:57;1.63;;;1.02;;
38909;SDS011;24676;51.360;12.354;2023-08-06T05:38:41;2.40;;;1.08;;
38909;SDS011;24676;51.360;12.354;2023-08-06T05:41:26;1.48;;;1.17;;
38909;SDS011;24676;51.360;12.354;2023-08-06T05:44:10;1.15;;;0.70;;
38909;SDS011;24676;51.360;12.354;2023-08-06T05:46:54;1.17;;;1.15;;
38909;SDS011;24676;51.360;12.354;2023-08-06T05:49:38;1.60;;;1.00;;
38909;SDS011;24676;51.360;12.354;2023-08-06T05:52:22;1.40;;;1.13;;
38909;SDS011;24676;51.360;12.354;2023-08-06T05:55:07;1.20;;;0.90;;
38909;SDS011;24676;51.360;12.354;2023-08-06T05:57:51;0.77;;;0.77;;
38909;SDS011;24676;51.360;12.354;2023-08-06T06:00:36;2.92;;;0.60;;
38909;SDS011;24676;51.360;12.354;2023-08-06T06:03:20;3.88;;;1.00;;
38909;SDS011;24676;51.360;12.354;2023-08-06T06:06:04;0.93;;;0.90;;
38909;SDS011;24676;51.360;12.354;2023-08-06T06:08:48;1.50;;;0.73;;
38909;SDS011;24676;51.360;12.354;2023-08-06T06:11:32;1.42;;;0.80;;
38909;SDS011;24676;51.360;12.354;2023-08-06T06:14:16;1.65;;;0.82;;
38909;SDS011;24676;51.360;12.354;2023-08-06T06:17:01;1.60;;;0.90;;
38909;SDS011;24676;51.360;12.354;2023-08-06T06:19:46;0.80;;;0.77;;
38909;SDS011;24676;51.360;12.354;2023-08-06T06:22:30;0.80;;;0.80;;
38909;SDS011;24676;51.360;12.354;2023-08-06T06:25:15;0.70;;;0.70;;
38909;SDS011;24676;51.360;12.354;2023-08-06T06:27:59;0.80;;;0.80;;
38909;SDS011;24676;51.360;12.354;2023-08-06T06:30:43;0.70;;;0.65;;
38909;SDS011;24676;51.360;12.354;2023-08-06T06:33:27;2.08;;;1.35;;
38909;SDS011;24676;51.360;12.354;2023-08-06T06:36:12;1.05;;;0.57;;
38909;SDS011;24676;51.360;12.354;2023-08-06T06:38:56;0.85;;;0.75;;
38909;SDS011;24676;51.360;12.354;2023-08-06T06:41:41;2.10;;;0.95;;
38909;SDS011;24676;51.360;12.354;2023-08-06T06:44:25;1.08;;;0.70;;
38909;SDS011;24676;51.360;12.354;2023-08-06T06:47:09;0.77;;;0.77;;
38909;SDS011;24676;51.360;12.354;2023-08-06T06:49:53;0.77;;;0.77;;
38909;SDS011;24676;51.360;12.354;2023-08-06T06:52:37;6.10;;;1.30;;
38909;SDS011;24676;51.360;12.354;2023-08-06T06:55:21;1.65;;;1.20;;
38909;SDS011;24676;51.360;12.354;2023-08-06T06:58:06;1.83;;;1.08;;
38909;SDS011;24676;51.360;12.354;2023-08-06T07:00:50;1.95;;;1.20;;
38909;SDS011;24676;51.360;12.354;2023-08-06T07:03:34;2.55;;;0.90;;
38909;SDS011;24676;51.360;12.354;2023-08-06T07:06:19;1.85;;;1.10;;
38909;SDS011;24676;51.360;12.354;2023-08-06T07:09:03;2.28;;;0.90;;
38909;SDS011;24676;51.360;12.354;2023-08-06T07:11:47;0.95;;;0.95;;
38909;SDS011;24676;51.360;12.354;2023-08-06T07:14:32;1.42;;;0.75;;
38909;SDS011;24676;51.360;12.354;2023-08-06T07:17:15;1.45;;;1.02;;
38909;SDS011;24676;51.360;12.354;2023-08-06T07:20:00;3.58;;;0.82;;
38909;SDS011;24676;51.360;12.354;2023-08-06T07:22:44;1.05;;;1.00;;
38909;SDS011;24676;51.360;12.354;2023-08-06T07:25:28;0.60;;;0.52;;
38909;SDS011;24676;51.360;12.354;2023-08-06T07:28:13;1.27;;;1.25;;
38909;SDS011;24676;51.360;12.354;2023-08-06T07:30:58;2.53;;;1.33;;
38909;SDS011;24676;51.360;12.354;2023-08-06T07:33:42;4.28;;;1.05;;
38909;SDS011;24676;51.360;12.354;2023-08-06T07:36:26;2.10;;;0.68;;
38909;SDS011;24676;51.360;12.354;2023-08-06T07:39:10;1.13;;;0.88;;
38909;SDS011;24676;51.360;12.354;2023-08-06T07:41:54;1.58;;;0.82;;
38909;SDS011;24676;51.360;12.354;2023-08-06T07:44:39;0.70;;;0.70;;
38909;SDS011;24676;51.360;12.354;2023-08-06T07:47:23;1.27;;;0.80;;
38909;SDS011;24676;51.360;12.354;2023-08-06T07:50:07;1.50;;;1.25;;
38909;SDS011;24676;51.360;12.354;2023-08-06T07:52:52;0.65;;;0.60;;
38909;SDS011;24676;51.360;12.354;2023-08-06T07:55:36;1.38;;;1.23;;
38909;SDS011;24676;51.360;12.354;2023-08-06T07:58:20;0.73;;;0.73;;
38909;SDS011;24676;51.360;12.354;2023-08-06T08:01:07;1.08;;;1.00;;
38909;SDS011;24676;51.360;12.354;2023-08-06T08:03:51;1.73;;;1.25;;
38909;SDS011;24676;51.360;12.354;2023-08-06T08:06:36;1.13;;;1.00;;
38909;SDS011;24676;51.360;12.354;2023-08-06T08:09:21;1.42;;;0.80;;
38909;SDS011;24676;51.360;12.354;2023-08-06T08:12:05;1.08;;;0.70;;
38909;SDS011;24676;51.360;12.354;2023-08-06T08:14:50;1.27;;;1.00;;
38909;SDS011;24676;51.360;12.354;2023-08-06T08:17:34;2.83;;;1.08;;
38909;SDS011;24676;51.360;12.354;2023-08-06T08:20:18;0.73;;;0.73;;
38909;SDS011;24676;51.360;12.354;2023-08-06T08:23:03;1.08;;;0.70;;
38909;SDS011;24676;51.360;12.354;2023-08-06T08:25:47;2.75;;;1.50;;
38909;SDS011;24676;51.360;12.354;2023-08-06T08:28:31;1.17;;;1.10;;
38909;SDS011;24676;51.360;12.354;2023-08-06T08:31:16;2.65;;;1.17;;
38909;SDS011;24676;51.360;12.354;2023-08-06T08:34:00;1.08;;;0.63;;
38909;SDS011;24676;51.360;12.354;2023-08-06T08:36:44;2.80;;;1.05;;
38909;SDS011;24676;51.360;12.354;2023-08-06T08:39:33;0.82;;;0.65;;
38909;SDS011;24676;51.360;12.354;2023-08-06T08:42:18;2.92;;;0.90;;
38909;SDS011;24676;51.360;12.354;2023-08-06T08:45:04;0.80;;;0.80;;
38909;SDS011;24676;51.360;12.354;2023-08-06T08:47:51;1.40;;;0.80;;
38909;SDS011;24676;51.360;12.354;2023-08-06T08:50:36;1.40;;;0.90;;
38909;SDS011;24676;51.360;12.354;2023-08-06T08:53:20;0.95;;;0.95;;
38909;SDS011;24676;51.360;12.354;2023-08-06T08:56:05;1.23;;;0.70;;
38909;SDS011;24676;51.360;12.354;2023-08-06T08:58:50;0.70;;;0.70;;
38909;SDS011;24676;51.360;12.354;2023-08-06T09:01:37;1.80;;;1.13;;
38909;SDS011;24676;51.360;12.354;2023-08-06T09:07:07;1.15;;;0.88;;
38909;SDS011;24676;51.360;12.354;2023-08-06T09:09:53;1.10;;;0.90;;
38909;SDS011;24676;51.360;12.354;2023-08-06T09:23:40;2.00;;;1.25;;
38909;SDS011;24676;51.360;12.354;2023-08-06T09:26:32;2.22;;;0.95;;
38909;SDS011;24676;51.360;12.354;2023-08-06T09:29:17;1.17;;;1.00;;
38909;SDS011;24676;51.360;12.354;2023-08-06T09:32:02;0.75;;;0.75;;
38909;SDS011;24676;51.360;12.354;2023-08-06T09:34:46;0.88;;;0.57;;
38909;SDS011;24676;51.360;12.354;2023-08-06T09:40:29;1.05;;;0.57;;
38909;SDS011;24676;51.360;12.354;2023-08-06T10:08:00;0.70;;;0.67;;
38909;SDS011;24676;51.360;12.354;2023-08-06T10:10:47;1.67;;;1.45;;
38909;SDS011;24676;51.360;12.354;2023-08-06T10:13:32;0.70;;;0.70;;
38909;SDS011;24676;51.360;12.354;2023-08-06T10:16:18;0.70;;;0.70;;
38909;SDS011;24676;51.360;12.354;2023-08-06T10:47:25;4.50;;;0.50;;
38909;SDS011;24676;51.360;12.354;2023-08-06T10:53:03;0.70;;;0.70;;
38909;SDS011;24676;51.360;12.354;2023-08-06T10:55:49;0.50;;;0.50;;
38909;SDS011;24676;51.360;12.354;2023-08-06T10:58:34;0.60;;;0.60;;
38909;SDS011;24676;51.360;12.354;2023-08-06T11:01:18;0.57;;;0.57;;
38909;SDS011;24676;51.360;12.354;2023-08-06T11:04:03;0.90;;;0.70;;
38909;SDS011;24676;51.360;12.354;2023-08-06T11:15:05;1.13;;;0.82;;
38909;SDS011;24676;51.360;12.354;2023-08-06T11:17:50;0.30;;;0.30;;
38909;SDS011;24676;51.360;12.354;2023-08-06T11:23:19;1.05;;;0.70;;
38909;SDS011;24676;51.360;12.354;2023-08-06T11:26:03;0.45;;;0.45;;
38909;SDS011;24676;51.360;12.354;2023-08-06T11:28:48;0.40;;;0.40;;
38909;SDS011;24676;51.360;12.354;2023-08-06T11:31:33;0.63;;;0.63;;
38909;SDS011;24676;51.360;12.354;2023-08-06T11:34:20;0.45;;;0.45;;
38909;SDS011;24676;51.360;12.354;2023-08-06T11:37:05;0.68;;;0.68;;
38909;SDS011;24676;51.360;12.354;2023-08-06T11:39:50;0.60;;;0.55;;
38909;SDS011;24676;51.360;12.354;2023-08-06T11:42:36;0.55;;;0.50;;
38909;SDS011;24676;51.360;12.354;2023-08-06T11:45:24;2.75;;;1.02;;
38909;SDS011;24676;51.360;12.354;2023-08-06T11:48:08;0.85;;;0.82;;
38909;SDS011;24676;51.360;12.354;2023-08-06T12:37:55;0.90;;;0.90;;
38909;SDS011;24676;51.360;12.354;2023-08-06T12:43:25;2.08;;;0.30;;
38909;SDS011;24676;51.360;12.354;2023-08-06T12:46:09;1.02;;;0.57;;
38909;SDS011;24676;51.360;12.354;2023-08-06T12:48:57;0.40;;;0.40;;
38909;SDS011;24676;51.360;12.354;2023-08-06T13:05:23;0.80;;;0.67;;
38909;SDS011;24676;51.360;12.354;2023-08-06T13:10:51;0.70;;;0.50;;
38909;SDS011;24676;51.360;12.354;2023-08-06T14:08:31;0.20;;;0.10;;
38909;SDS011;24676;51.360;12.354;2023-08-06T14:11:15;1.23;;;0.57;;
38909;SDS011;24676;51.360;12.354;2023-08-06T15:14:16;0.32;;;0.30;;
38909;SDS011;24676;51.360;12.354;2023-08-06T16:42:13;1.50;;;1.20;;
38909;SDS011;24676;51.360;12.354;2023-08-06T16:44:57;1.70;;;1.60;;
38909;SDS011;24676;51.360;12.354;2023-08-06T16:47:41;6.00;;;2.50;;
38909;SDS011;24676;51.360;12.354;2023-08-06T17:06:53;1.90;;;0.70;;
38909;SDS011;24676;51.360;12.354;2023-08-06T17:09:37;1.00;;;0.87;;
38909;SDS011;24676;51.360;12.354;2023-08-06T17:15:05;0.40;;;0.40;;
38909;SDS011;24676;51.360;12.354;2023-08-06T17:31:32;1.85;;;0.75;;
38909;SDS011;24676;51.360;12.354;2023-08-06T17:34:17;3.63;;;1.23;;
38909;SDS011;24676;51.360;12.354;2023-08-06T17:37:01;1.05;;;0.50;;
38909;SDS011;24676;51.360;12.354;2023-08-06T17:39:48;0.52;;;0.52;;
38909;SDS011;24676;51.360;12.354;2023-08-06T17:42:32;1.08;;;0.60;;
38909;SDS011;24676;51.360;12.354;2023-08-06T17:45:16;0.85;;;0.30;;
38909;SDS011;24676;51.360;12.354;2023-08-06T17:48:01;2.30;;;0.43;;
38909;SDS011;24676;51.360;12.354;2023-08-06T17:50:45;0.80;;;0.80;;
38909;SDS011;24676;51.360;12.354;2023-08-06T17:53:30;1.60;;;0.40;;
38909;SDS011;24676;51.360;12.354;2023-08-06T17:56:14;2.58;;;1.15;;
38909;SDS011;24676;51.360;12.354;2023-08-06T17:58:59;1.25;;;0.77;;
38909;SDS011;24676;51.360;12.354;2023-08-06T18:01:43;3.15;;;0.70;;
38909;SDS011;24676;51.360;12.354;2023-08-06T18:04:29;0.82;;;0.70;;
38909;SDS011;24676;51.360;12.354;2023-08-06T18:07:15;1.63;;;1.08;;
38909;SDS011;24676;51.360;12.354;2023-08-06T18:09:59;1.75;;;0.80;;
38909;SDS011;24676;51.360;12.354;2023-08-06T18:12:43;0.82;;;0.82;;
38909;SDS011;24676;51.360;12.354;2023-08-06T18:15:27;4.07;;;0.80;;
38909;SDS011;24676;51.360;12.354;2023-08-06T18:18:12;1.77;;;0.68;;
38909;SDS011;24676;51.360;12.354;2023-08-06T18:20:56;1.10;;;1.10;;
38909;SDS011;24676;51.360;12.354;2023-08-06T18:23:41;4.07;;;0.77;;
38909;SDS011;24676;51.360;12.354;2023-08-06T18:26:26;1.13;;;0.82;;
38909;SDS011;24676;51.360;12.354;2023-08-06T18:29:10;1.00;;;0.90;;
38909;SDS011;24676;51.360;12.354;2023-08-06T18:31:54;0.57;;;0.40;;
38909;SDS011;24676;51.360;12.354;2023-08-06T18:34:39;0.88;;;0.52;;
38909;SDS011;24676;51.360;12.354;2023-08-06T18:37:23;1.65;;;0.30;;
38909;SDS011;24676;51.360;12.354;2023-08-06T18:40:08;2.67;;;1.75;;
38909;SDS011;24676;51.360;12.354;2023-08-06T18:42:53;2.78;;;0.40;;
38909;SDS011;24676;51.360;12.354;2023-08-06T18:45:37;0.88;;;0.70;;
38909;SDS011;24676;51.360;12.354;2023-08-06T18:48:24;1.38;;;1.05;;
38909;SDS011;24676;51.360;12.354;2023-08-06T18:51:09;1.95;;;0.60;;
38909;SDS011;24676;51.360;12.354;2023-08-06T18:53:53;0.65;;;0.65;;
38909;SDS011;24676;51.360;12.354;2023-08-06T18:56:37;0.98;;;0.90;;
38909;SDS011;24676;51.360;12.354;2023-08-06T18:59:21;0.85;;;0.63;;
38909;SDS011;24676;51.360;12.354;2023-08-06T19:02:07;0.80;;;0.80;;
38909;SDS011;24676;51.360;12.354;2023-08-06T19:04:53;1.15;;;0.82;;
38909;SDS011;24676;51.360;12.354;2023-08-06T19:07:38;2.95;;;2.05;;
38909;SDS011;24676;51.360;12.354;2023-08-06T19:10:22;3.30;;;0.90;;
38909;SDS011;24676;51.360;12.354;2023-08-06T19:13:08;1.55;;;1.45;;
38909;SDS011;24676;51.360;12.354;2023-08-06T19:15:54;0.43;;;0.43;;
38909;SDS011;24676;51.360;12.354;2023-08-06T19:18:38;1.00;;;1.00;;
38909;SDS011;24676;51.360;12.354;2023-08-06T19:21:22;1.17;;;1.08;;
38909;SDS011;24676;51.360;12.354;2023-08-06T19:24:07;3.58;;;1.05;;
38909;SDS011;24676;51.360;12.354;2023-08-06T19:26:51;1.20;;;0.95;;
38909;SDS011;24676;51.360;12.354;2023-08-06T19:29:35;0.50;;;0.50;;
38909;SDS011;24676;51.360;12.354;2023-08-06T19:32:20;6.13;;;1.40;;
38909;SDS011;24676;51.360;12.354;2023-08-06T19:35:05;1.10;;;1.00;;
38909;SDS011;24676;51.360;12.354;2023-08-06T19:37:50;1.67;;;1.23;;
38909;SDS011;24676;51.360;12.354;2023-08-06T19:40:34;1.13;;;0.80;;
38909;SDS011;24676;51.360;12.354;2023-08-06T19:43:18;1.50;;;1.33;;
38909;SDS011;24676;51.360;12.354;2023-08-06T19:46:02;1.30;;;1.00;;
38909;SDS011;24676;51.360;12.354;2023-08-06T19:48:47;1.25;;;1.00;;
38909;SDS011;24676;51.360;12.354;2023-08-06T19:51:31;2.30;;;1.33;;
38909;SDS011;24676;51.360;12.354;2023-08-06T19:54:16;1.45;;;1.20;;
38909;SDS011;24676;51.360;12.354;2023-08-06T19:57:01;3.85;;;1.88;;
38909;SDS011;24676;51.360;12.354;2023-08-06T19:59:45;1.48;;;1.38;;
38909;SDS011;24676;51.360;12.354;2023-08-06T20:02:29;1.75;;;1.50;;
38909;SDS011;24676;51.360;12.354;2023-08-06T20:05:14;4.65;;;1.88;;
38909;SDS011;24676;51.360;12.354;2023-08-06T20:07:58;3.90;;;2.20;;
38909;SDS011;24676;51.360;12.354;2023-08-06T20:10:46;2.15;;;1.88;;
38909;SDS011;24676;51.360;12.354;2023-08-06T20:13:30;2.08;;;1.48;;
38909;SDS011;24676;51.360;12.354;2023-08-06T20:16:16;2.25;;;1.10;;
38909;SDS011;24676;51.360;12.354;2023-08-06T20:19:00;5.00;;;2.72;;
38909;SDS011;24676;51.360;12.354;2023-08-06T20:21:46;2.80;;;1.52;;
38909;SDS011;24676;51.360;12.354;2023-08-06T20:24:30;1.05;;;1.02;;
38909;SDS011;24676;51.360;12.354;2023-08-06T20:27:15;1.75;;;1.45;;
38909;SDS011;24676;51.360;12.354;2023-08-06T20:29:59;0.70;;;0.68;;
38909;SDS011;24676;51.360;12.354;2023-08-06T20:32:43;2.40;;;1.45;;
38909;SDS011;24676;51.360;12.354;2023-08-06T20:35:27;2.47;;;1.10;;
38909;SDS011;24676;51.360;12.354;2023-08-06T20:38:11;1.70;;;1.60;;
38909;SDS011;24676;51.360;12.354;2023-08-06T20:40:56;2.17;;;1.13;;
38909;SDS011;24676;51.360;12.354;2023-08-06T20:43:40;1.60;;;1.23;;
38909;SDS011;24676;51.360;12.354;2023-08-06T20:46:25;1.45;;;1.10;;
38909;SDS011;24676;51.360;12.354;2023-08-06T20:49:09;3.08;;;1.38;;
38909;SDS011;24676;51.360;12.354;2023-08-06T20:51:53;0.93;;;0.90;;
38909;SDS011;24676;51.360;12.354;2023-08-06T20:54:37;3.85;;;1.77;;
38909;SDS011;24676;51.360;12.354;2023-08-06T20:57:21;1.20;;;1.00;;
38909;SDS011;24676;51.360;12.354;2023-08-06T21:00:05;2.00;;;1.90;;
38909;SDS011;24676;51.360;12.354;2023-08-06T21:02:50;5.05;;;2.05;;
38909;SDS011;24676;51.360;12.354;2023-08-06T21:05:34;2.55;;;1.92;;
38909;SDS011;24676;51.360;12.354;2023-08-06T21:08:18;1.83;;;1.27;;
38909;SDS011;24676;51.360;12.354;2023-08-06T21:11:03;2.15;;;1.52;;
38909;SDS011;24676;51.360;12.354;2023-08-06T21:13:48;1.20;;;1.10;;
38909;SDS011;24676;51.360;12.354;2023-08-06T21:16:33;3.35;;;1.63;;
38909;SDS011;24676;51.360;12.354;2023-08-06T21:19:17;2.33;;;1.48;;
38909;SDS011;24676;51.360;12.354;2023-08-06T21:22:02;2.33;;;2.15;;
38909;SDS011;24676;51.360;12.354;2023-08-06T21:24:46;2.40;;;1.83;;
38909;SDS011;24676;51.360;12.354;2023-08-06T21:27:33;2.80;;;1.65;;
38909;SDS011;24676;51.360;12.354;2023-08-06T21:30:17;1.63;;;1.52;;
38909;SDS011;24676;51.360;12.354;2023-08-06T21:33:01;4.97;;;1.63;;
38909;SDS011;24676;51.360;12.354;2023-08-06T21:35:45;4.45;;;1.80;;
38909;SDS011;24676;51.360;12.354;2023-08-06T21:38:33;2.78;;;1.58;;
38909;SDS011;24676;51.360;12.354;2023-08-06T21:41:18;1.80;;;1.38;;
38909;SDS011;24676;51.360;12.354;2023-08-06T21:44:04;3.45;;;1.65;;
38909;SDS011;24676;51.360;12.354;2023-08-06T21:46:48;1.73;;;1.60;;
38909;SDS011;24676;51.360;12.354;2023-08-06T21:49:32;1.52;;;1.42;;
38909;SDS011;24676;51.360;12.354;2023-08-06T21:52:18;2.63;;;1.65;;
38909;SDS011;24676;51.360;12.354;2023-08-06T21:55:02;1.90;;;1.75;;
38909;SDS011;24676;51.360;12.354;2023-08-06T21:57:50;1.10;;;1.02;;
38909;SDS011;24676;51.360;12.354;2023-08-06T22:00:34;2.88;;;2.15;;
38909;SDS011;24676;51.360;12.354;2023-08-06T22:03:20;5.13;;;1.67;;
38909;SDS011;24676;51.360;12.354;2023-08-06T22:06:04;2.53;;;1.65;;
38909;SDS011;24676;51.360;12.354;2023-08-06T22:08:50;2.25;;;1.05;;
38909;SDS011;24676;51.360;12.354;2023-08-06T22:11:37;1.25;;;1.00;;
38909;SDS011;24676;51.360;12.354;2023-08-06T22:14:21;3.53;;;1.48;;
38909;SDS011;24676;51.360;12.354;2023-08-06T22:17:05;1.15;;;1.13;;
38909;SDS011;24676;51.360;12.354;2023-08-06T22:19:49;3.00;;;1.35;;
38909;SDS011;24676;51.360;12.354;2023-08-06T22:22:33;2.30;;;1.20;;
38909;SDS011;24676;51.360;12.354;2023-08-06T22:25:21;1.10;;;1.00;;
38909;SDS011;24676;51.360;12.354;2023-08-06T22:28:05;4.05;;;1.67;;
38909;SDS011;24676;51.360;12.354;2023-08-06T22:30:50;2.55;;;2.22;;
38909;SDS011;24676;51.360;12.354;2023-08-06T22:33:35;1.17;;;1.08;;
38909;SDS011;24676;51.360;12.354;2023-08-06T22:36:19;1.98;;;1.20;;
38909;SDS011;24676;51.360;12.354;2023-08-06T22:39:04;1.20;;;1.10;;
38909;SDS011;24676;51.360;12.354;2023-08-06T22:41:48;1.70;;;0.70;;
38909;SDS011;24676;51.360;12.354;2023-08-06T22:44:32;1.40;;;1.30;;